FranceFixed distance
La SaintéLyon
30 Nov – 1 Dec2024
Distance
82km
Finishers
6,2495,534 men704 women
Winning time
5:52:21h
Median pace
6.86km/h
Pace distribution
6,238 finishers · 4.62–13.96 km/h · mean 7.02
Every finisher ran the same 82 km course, so these paces are directly comparable.
Histogram of finisher pace. 6,238 finishers ranged from 4.62 to 13.96 kilometres per hour, with a mean of 7.02 and a median of 6.86. The busiest band is 6.5 to 7.0 kilometres per hour, with 1,188 finishers.
Results
Ranks 2,601–2,650 of 6,238
| Rank | Runner | Time | Pace | Cat. | Placing |
|---|---|---|---|---|---|
| 2606 | Pelletier, NicolasFranceMan | 11:33:58h | 7.09 | M35 | 2437th M · 389th M35 |
| 2608 | Berthet, RemiFranceMan | 11:34:03h | 7.09 | M23 | 2439th M · 1225th M23 |
| 2609 | de Jotemps, YsalineFranceWoman ARC / Team Trail 971 | 11:34:04h | 7.09 | W23 | 170th F · 87th W23 |
| 2610 | Gleitz, SylvainFranceMan ACS Saint Jean SUR Veyle | 11:34:13h | 7.09 | M40 | 2440th M · 307th M40 |
| 2610 | Brossier, AlexandreFranceMan | 11:34:13h | 7.09 | M35 | 2440th M · 390th M35 |
| 2610 | Ballester, PierreFranceMan | 11:34:13h | 7.09 | M23 | 2440th M · 1226th M23 |
| 2613 | Dedryver, MaximeFranceMan Pompiers la Voulte/ Rhone | 11:34:14h | 7.09 | M45 | 2443rd M · 189th M45 |
| 2613 | Bigorre, FrancoisFranceMan Run2Eat | 11:34:14h | 7.09 | M50 | 2443rd M · 98th M50 |
| 2615 | Celhay, LucasFranceMan Ensenat Coaching | 11:34:25h | 7.08 | M23 | 2445th M · 1227th M23 |
| 2616 | Capiod, LeoFranceMan SO Trail Lyon | 11:34:34h | 7.08 | M23 | 2446th M · 1228th M23 |
| 2617 | Sainte, LudivineFranceWoman | 11:34:35h | 7.08 | W40 | 171st F · 22nd W40 |
| 2618 | Berton, ClothildeFranceWoman | 11:34:37h | 7.08 | W23 | 172nd F · 88th W23 |
| 2618 | Berton, BenjaminFranceMan | 11:34:37h | 7.08 | M23 | 2447th M · 1229th M23 |
| 2620 | Lorin, LucasFranceMan | 11:34:40h | 7.08 | M23 | 2448th M · 1230th M23 |
| 2621 | Bensaadoune, SalahFranceMan *Villeneuve-Lès-Avignon | 11:34:43h | 7.08 | M60 | 2449th M · 13th M60 |
| 2622 | Curto, CedricPortugalMan | 11:34:47h | 7.08 | M23 | 2450th M · 1231st M23 |
| 2623 | Barraud, LaurentFranceMan Tarahumara Team | 11:34:48h | 7.08 | M45 | 2451st M · 190th M45 |
| 2624 | Badoil, SylvainFranceMan TDR Craponne | 11:34:49h | 7.08 | M45 | 2452nd M · 191st M45 |
| 2625 | Turner, JohnGreat BritainMan | 11:34:50h | 7.08 | M35 | 2453rd M · 391st M35 |
| 2626 | Bacheley, LucasFranceMan | 11:34:53h | 7.08 | M23 | 2454th M · 1232nd M23 |
| 2626 | Elbim, AlexandreFranceMan | 11:34:53h | 7.08 | M23 | 2454th M · 1232nd M23 |
| 2628 | Hsiao, AndrewFranceMan | 11:34:56h | 7.08 | M23 | 2456th M · 1234th M23 |
| 2629 | Vacas, JorisFranceMan *Lyon | 11:34:57h | 7.08 | M23 | 2457th M · 1235th M23 |
| 2630 | Delarue, ThomasFranceMan | 11:34:58h | 7.08 | M23 | 2458th M · 1236th M23 |
| 2631 | Monnier, MarjorieFranceWoman *Vincennes | 11:35:00h | 7.08 | W23 | 173rd F · 89th W23 |
| 2632 | Cardon, DavidFranceMan | 11:35:01h | 7.08 | M40 | 2459th M · 308th M40 |
| 2633 | Cohen, JohanFranceMan Run IN Annecy | 11:35:03h | 7.08 | M35 | 2460th M · 392nd M35 |
| 2634 | Albert, AlexandreFranceMan PLM Conflans | 11:35:08h | 7.08 | M23 | 2461st M · 1237th M23 |
| 2635 | Le Viol, MaximeFranceMan | 11:35:12h | 7.08 | M23 | 2462nd M · 1238th M23 |
| 2636 | Audouin, ArthurFranceMan | 11:35:13h | 7.08 | M23 | 2463rd M · 1239th M23 |
| 2637 | Gaillot, AlexisFranceMan *Remiremont | 11:35:25h | 7.08 | M50 | 2464th M · 99th M50 |
| 2638 | Voyer, LaurentFranceMan Asics Eclaireurs Vulca... | 11:35:28h | 7.07 | M40 | 2465th M · 309th M40 |
| 2639 | Reveillere, ClementFranceMan | 11:35:30h | 7.07 | M23 | 2466th M · 1240th M23 |
| 2640 | Delangue, FabienFranceMan Valence Traithlon | 11:35:31h | 7.07 | M35 | 2467th M · 393rd M35 |
| 2641 | Blazy, ThomasFranceMan *Lyon | 11:35:33h | 7.07 | M23 | 2468th M · 1241st M23 |
| 2642 | Almeida, EmmanuelleFranceWoman Asvel | 11:35:34h | 7.07 | W23 | 174th F · 90th W23 |
| 2643 | Hüe, EtienneFranceMan | 11:35:39h | 7.07 | M23 | 2469th M · 1242nd M23 |
| 2644 | Camuset, Anne-LaureFranceWoman | 11:35:47h | 7.07 | W23 | 175th F · 91st W23 |
| 2644 | Camuset, JulietteFranceWoman | 11:35:47h | 7.07 | W23 | 175th F · 91st W23 |
| 2646 | Clement, RomainFranceMan | 11:35:50h | 7.07 | M23 | 2470th M · 1243rd M23 |
| 2647 | Mathieu, StephaneFranceMan Rams | 11:35:51h | 7.07 | M55 | 2471st M · 41st M55 |
| 2648 | Lecomte, RaphaelFranceMan *Paris | 11:35:52h | 7.07 | M23 | 2472nd M · 1244th M23 |
| 2648 | Campana, JeremyFranceMan *Marseille | 11:35:52h | 7.07 | M23 | 2472nd M · 1244th M23 |
| 2648 | Breard, Jean-SebastienFranceMan | 11:35:52h | 7.07 | M35 | 2472nd M · 394th M35 |
| 2651 | Defour Rivier, HadrienFranceMan *Villeurbanne | 11:35:53h | 7.07 | M23 | 2475th M · 1246th M23 |
| 2652 | Royer, LionelFranceMan *Lyon | 11:35:56h | 7.07 | M40 | 2476th M · 310th M40 |
| 2653 | Bernard, GauthierFranceMan Trailers Dijonnais | 11:36:11h | 7.07 | M35 | 2477th M · 395th M35 |
| 2653 | Hirth, VincentFranceMan | 11:36:11h | 7.07 | M23 | 2477th M · 1247th M23 |
| 2655 | Flora, GregoireFranceMan | 11:36:12h | 7.07 | M45 | 2479th M · 192nd M45 |
| 2656 | Borjon Piron, TeophaneFranceMan *Boz | 11:36:17h | 7.07 | M23 | 2480th M · 1248th M23 |
- 2606Pelletier, NicolasFranceMan2437th M · 389th M35Time11:33:58hPace7.09Cat.M35
- 2608Berthet, RemiFranceMan2439th M · 1225th M23Time11:34:03hPace7.09Cat.M23
- 2609de Jotemps, YsalineFranceWomanARC / Team Trail 971170th F · 87th W23Time11:34:04hPace7.09Cat.W23
- 2610Gleitz, SylvainFranceManACS Saint Jean SUR Veyle2440th M · 307th M40Time11:34:13hPace7.09Cat.M40
- 2610Brossier, AlexandreFranceMan2440th M · 390th M35Time11:34:13hPace7.09Cat.M35
- 2610Ballester, PierreFranceMan2440th M · 1226th M23Time11:34:13hPace7.09Cat.M23
- 2613Dedryver, MaximeFranceManPompiers la Voulte/ Rhone2443rd M · 189th M45Time11:34:14hPace7.09Cat.M45
- 2613Bigorre, FrancoisFranceManRun2Eat2443rd M · 98th M50Time11:34:14hPace7.09Cat.M50
- 2615Celhay, LucasFranceManEnsenat Coaching2445th M · 1227th M23Time11:34:25hPace7.08Cat.M23
- 2616Capiod, LeoFranceManSO Trail Lyon2446th M · 1228th M23Time11:34:34hPace7.08Cat.M23
- 2617Sainte, LudivineFranceWoman171st F · 22nd W40Time11:34:35hPace7.08Cat.W40
- 2618Berton, ClothildeFranceWoman172nd F · 88th W23Time11:34:37hPace7.08Cat.W23
- 2618Berton, BenjaminFranceMan2447th M · 1229th M23Time11:34:37hPace7.08Cat.M23
- 2620Lorin, LucasFranceMan2448th M · 1230th M23Time11:34:40hPace7.08Cat.M23
- 2621Bensaadoune, SalahFranceMan*Villeneuve-Lès-Avignon2449th M · 13th M60Time11:34:43hPace7.08Cat.M60
- 2622Curto, CedricPortugalMan2450th M · 1231st M23Time11:34:47hPace7.08Cat.M23
- 2623Barraud, LaurentFranceManTarahumara Team2451st M · 190th M45Time11:34:48hPace7.08Cat.M45
- 2624Badoil, SylvainFranceManTDR Craponne2452nd M · 191st M45Time11:34:49hPace7.08Cat.M45
- 2625Turner, JohnGreat BritainMan2453rd M · 391st M35Time11:34:50hPace7.08Cat.M35
- 2626Bacheley, LucasFranceMan2454th M · 1232nd M23Time11:34:53hPace7.08Cat.M23
- 2626Elbim, AlexandreFranceMan2454th M · 1232nd M23Time11:34:53hPace7.08Cat.M23
- 2628Hsiao, AndrewFranceMan2456th M · 1234th M23Time11:34:56hPace7.08Cat.M23
- 2629Vacas, JorisFranceMan*Lyon2457th M · 1235th M23Time11:34:57hPace7.08Cat.M23
- 2630Delarue, ThomasFranceMan2458th M · 1236th M23Time11:34:58hPace7.08Cat.M23
- 2631Monnier, MarjorieFranceWoman*Vincennes173rd F · 89th W23Time11:35:00hPace7.08Cat.W23
- 2632Cardon, DavidFranceMan2459th M · 308th M40Time11:35:01hPace7.08Cat.M40
- 2633Cohen, JohanFranceManRun IN Annecy2460th M · 392nd M35Time11:35:03hPace7.08Cat.M35
- 2634Albert, AlexandreFranceManPLM Conflans2461st M · 1237th M23Time11:35:08hPace7.08Cat.M23
- 2635Le Viol, MaximeFranceMan2462nd M · 1238th M23Time11:35:12hPace7.08Cat.M23
- 2636Audouin, ArthurFranceMan2463rd M · 1239th M23Time11:35:13hPace7.08Cat.M23
- 2637Gaillot, AlexisFranceMan*Remiremont2464th M · 99th M50Time11:35:25hPace7.08Cat.M50
- 2638Voyer, LaurentFranceManAsics Eclaireurs Vulca...2465th M · 309th M40Time11:35:28hPace7.07Cat.M40
- 2639Reveillere, ClementFranceMan2466th M · 1240th M23Time11:35:30hPace7.07Cat.M23
- 2640Delangue, FabienFranceManValence Traithlon2467th M · 393rd M35Time11:35:31hPace7.07Cat.M35
- 2641Blazy, ThomasFranceMan*Lyon2468th M · 1241st M23Time11:35:33hPace7.07Cat.M23
- 2642Almeida, EmmanuelleFranceWomanAsvel174th F · 90th W23Time11:35:34hPace7.07Cat.W23
- 2643Hüe, EtienneFranceMan2469th M · 1242nd M23Time11:35:39hPace7.07Cat.M23
- 2644Camuset, Anne-LaureFranceWoman175th F · 91st W23Time11:35:47hPace7.07Cat.W23
- 2644Camuset, JulietteFranceWoman175th F · 91st W23Time11:35:47hPace7.07Cat.W23
- 2646Clement, RomainFranceMan2470th M · 1243rd M23Time11:35:50hPace7.07Cat.M23
- 2647Mathieu, StephaneFranceManRams2471st M · 41st M55Time11:35:51hPace7.07Cat.M55
- 2648Lecomte, RaphaelFranceMan*Paris2472nd M · 1244th M23Time11:35:52hPace7.07Cat.M23
- 2648Campana, JeremyFranceMan*Marseille2472nd M · 1244th M23Time11:35:52hPace7.07Cat.M23
- 2648Breard, Jean-SebastienFranceMan2472nd M · 394th M35Time11:35:52hPace7.07Cat.M35
- 2651Defour Rivier, HadrienFranceMan*Villeurbanne2475th M · 1246th M23Time11:35:53hPace7.07Cat.M23
- 2652Royer, LionelFranceMan*Lyon2476th M · 310th M40Time11:35:56hPace7.07Cat.M40
- 2653Bernard, GauthierFranceManTrailers Dijonnais2477th M · 395th M35Time11:36:11hPace7.07Cat.M35
- 2653Hirth, VincentFranceMan2477th M · 1247th M23Time11:36:11hPace7.07Cat.M23
- 2655Flora, GregoireFranceMan2479th M · 192nd M45Time11:36:12hPace7.07Cat.M45
- 2656Borjon Piron, TeophaneFranceMan*Boz2480th M · 1248th M23Time11:36:17hPace7.07Cat.M23
Showing ranks 2,601–2,650 of 6,238